Enero 2005

Fecha / Hora Temperatura (*F) Dew Point (*F) Humedad Relativa (%)
1/1/2005 00:25 43.19 43 99.3
1/1/2005 00:55 42.46 42.46 100
1/1/2005 01:25 43.19 43.2 101
1/1/2005 01:55 41.72 41.72 100.3
1/1/2005 02:25 41.72 41.72 100.3
1/1/2005 02:55 40.97 40.98 100.3
1/1/2005 03:25 40.97 40.98 100.3
1/1/2005 03:55 42.46 42.46 100.6
1/1/2005 04:25 42.46 42.46 101
1/1/2005 04:55 42.46 42.46 100.6
1/1/2005 05:25 43.92 43.92 101.3
1/1/2005 05:55 43.19 43.2 101
1/1/2005 06:25 43.19 43.2 101
1/1/2005 06:55 43.19 43.2 101
1/1/2005 07:25 43.19 43.2 101
1/1/2005 07:55 43.19 43.2 101
1/1/2005 08:25 44.65 44.66 101
1/1/2005 08:55 47.53 47.54 100.3
1/1/2005 09:25 50.38 48.88 94.6
1/1/2005 09:55 51.79 49.12 90.6
1/1/2005 10:25 53.19 50.12 89.3
1/1/2005 10:55 54.58 50.02 84.5
1/1/2005 11:25 55.97 50.04 80.4
1/1/2005 11:55 57.35 49.18 74.1
1/1/2005 12:25 58.04 49.12 72.1
1/1/2005 12:55 58.04 46.6 65.6
1/1/2005 13:25 58.73 45.34 61
1/1/2005 13:55 58.73 45.08 60.4
1/1/2005 14:25 58.73 45.76 62
1/1/2005 14:55 58.73 47.06 65.1
1/1/2005 15:25 58.04 47.6 68.1
1/1/2005 15:55 57.35 48.82 73.1
1/1/2005 16:25 56.66 48.34 73.6
1/1/2005 16:55 55.28 48.2 77
1/1/2005 17:25 54.58 49.14 81.8
1/1/2005 17:55 53.19 50.12 89.3
1/1/2005 18:25 52.49 49.94 91
1/1/2005 18:55 52.49 49.82 90.6
1/1/2005 19:25 51.79 49.02 90.2
1/1/2005 19:55 51.08 49.36 93.8
1/1/2005 20:25 51.08 49.24 93.4
1/1/2005 20:55 50.38 49.08 95.3
1/1/2005 21:25 50.38 49.32 96.1
1/1/2005 21:55 49.67 48.92 97.2
1/1/2005 22:25 49.67 49.02 97.6
1/1/2005 22:55 48.96 48.4 97.9
1/1/2005 23:25 48.96 48.58 98.6
1/1/2005 23:55 48.25 47.88 98.6
1/2/2005 0:25 48.25 47.98 99
1/2/2005 0:55 47.53 47.34 99.3
1/2/2005 1:25 47.53 47.42 99.6
1/2/2005 1:55 47.53 47.54 100
1/2/2005 2:25 46.82 46.82 100.3
1/2/2005 2:55 46.1 46.1 100.6
1/2/2005 3:25 45.38 45.38 100.6
1/2/2005 3:55 45.38 45.38 100.6
1/2/2005 4:25 44.65 44.66 100.6
1/2/2005 4:55 44.65 44.66 101.3
1/2/2005 5:25 43.19 43.2 101.3
1/2/2005 5:55 43.19 43.2 101.3
1/2/2005 6:25 43.19 43.2 101.3
1/2/2005 6:55 43.92 43.92 101.9
1/2/2005 7:25 43.92 43.92 101.9
1/2/2005 7:55 44.65 44.66 101.9
1/2/2005 8:25 46.1 46.1 101.9
1/2/2005 8:55 48.25 46.32 93
1/2/2005 9:25 51.08 42.28 71.7
1/2/2005 9:55 53.19 40.54 62
1/2/2005 10:25 54.58 40.96 59.9
1/2/2005 10:55 55.97 39.44 53.7
1/2/2005 11:25 57.35 40.96 54.2
1/2/2005 11:55 58.04 41.12 53.2
1/2/2005 12:25 58.73 41.52 52.7
1/2/2005 12:55 58.73 43.24 56.3
1/2/2005 13:25 59.42 42.64 53.7
1/2/2005 13:55 58.73 44.42 58.9
1/2/2005 14:25 58.73 43.98 57.9
1/2/2005 14:55 59.42 45.5 59.9
1/2/2005 15:25 58.73 46.86 64.6
1/2/2005 15:55 56.66 45.68 66.6
1/2/2005 16:25 56.66 45.3 65.6
1/2/2005 16:55 55.28 47.36 74.6
1/2/2005 17:25 53.89 47.36 78.5
1/2/2005 17:55 53.19 47.78 81.8
1/2/2005 18:25 51.79 47.96 86.7
1/2/2005 18:55 51.08 48.04 89.3
1/2/2005 19:25 50.38 47.98 91.4
1/2/2005 19:55 51.08 49.02 92.6
1/2/2005 20:25 51.08 48.16 89.7
1/2/2005 20:55 50.38 48.2 92.2
1/2/2005 21:25 49.67 48.38 95.3
1/2/2005 21:55 50.38 48.2 92.2
1/2/2005 22:25 49.67 48.3 95
1/2/2005 22:55 48.96 48.1 96.8
1/2/2005 23:25 48.25 47.68 97.9
1/2/2005 23:55 48.25 47.88 98.6
1/3/2005 0:25 48.96 47.36 94.2
1/3/2005 0:55 48.25 47.2 96.1
1/3/2005 1:25 49.67 47.62 92.6
1/3/2005 1:55 48.96 47.68 95.3
1/3/2005 2:25 49.67 48.5 95.7
1/3/2005 2:55 49.67 48.38 95.3
1/3/2005 3:25 49.67 48.18 94.6
1/3/2005 3:55 50.38 49 95
1/3/2005 4:25 50.38 48.78 94.2
1/3/2005 4:55 50.38 49.08 95.3
1/3/2005 5:25 50.38 49.5 96.8
1/3/2005 5:55 50.38 50 98.6
1/3/2005 6:25 51.08 51.08 100
1/3/2005 6:55 51.08 51.08 101
1/3/2005 7:25 51.08 51.08 101.3
1/3/2005 7:55 51.79 51.78 101.9
1/3/2005 8:25 52.49 52.48 101.9
1/3/2005 8:55 53.19 53.18 101.9
1/3/2005 9:25 53.89 53.88 101.6
1/3/2005 9:55 54.58 54.58 100.6
1/3/2005 10:25 54.58 54.48 99.6
1/3/2005 10:55 54.58 54.3 99
1/3/2005 11:25 54.58 54.2 98.6
1/3/2005 11:55 54.58 54.48 99.6
1/3/2005 12:25 55.28 53.28 93
1/3/2005 12:55 54.58 53.06 94.6
1/3/2005 13:25 54.58 54.2 98.6
1/3/2005 13:55 54.58 54.48 99.6
1/3/2005 14:25 54.58 54.3 99
1/3/2005 14:55 54.58 53.8 97.2
1/3/2005 15:25 54.58 53.6 96.5
1/3/2005 15:55 53.89 53.62 99
1/3/2005 16:25 53.19 53.18 101
1/3/2005 16:55 53.19 53.18 102.2
1/3/2005 17:25 51.79 51.78 102.2
1/3/2005 17:55 51.79 51.78 102.8
1/3/2005 18:25 51.79 51.78 102.8
1/3/2005 18:55 51.08 51.08 102.8
1/3/2005 19:25 51.08 51.08 102.8
1/3/2005 19:55 50.38 50.38 102.8
1/3/2005 20:25 49.67 49.68 102.8
1/3/2005 20:55 49.67 49.68 102.8
1/3/2005 21:25 49.67 49.68 102.8
1/3/2005 21:55 50.38 50.38 102.8
1/3/2005 22:25 50.38 50.38 102.5
1/3/2005 22:55 50.38 50.38 102.2
1/3/2005 23:25 50.38 50.38 102.2
1/3/2005 23:55 48.96 48.96 102.5
1/4/2005 0:25 48.96 48.96 102.8
1/4/2005 0:55 48.96 48.96 103.1
1/4/2005 1:25 48.96 48.96 103.1
1/4/2005 1:55 48.25 48.24 103.1
1/4/2005 2:25 48.25 48.24 103.4
1/4/2005 2:55 47.53 47.54 103.1
1/4/2005 3:25 48.25 48.24 103.1
1/4/2005 3:55 48.25 48.24 103.1
1/4/2005 4:25 48.25 48.24 102.8
1/4/2005 4:55 47.53 47.54 101.6
1/4/2005 5:25 46.82 46.82 100.6
1/4/2005 5:55 47.53 47.54 100.6
1/4/2005 6:25 46.1 46.1 100.6
1/4/2005 6:55 45.38 45.38 101.6
1/4/2005 7:25 46.1 46.1 102.8
1/4/2005 7:55 46.1 46.1 104
1/4/2005 8:25 46.1 46.1 102.8
1/4/2005 8:55 46.82 46.82 102.5
1/4/2005 9:25 48.25 48.14 99.6
1/4/2005 9:55 48.96 48.7 99
1/4/2005 10:25 49.67 47.62 92.6
1/4/2005 10:55 48.96 44.5 84.5
1/4/2005 11:25 50.38 42.1 73.1
1/4/2005 11:55 51.79 40.86 66.1
1/4/2005 12:25 52.49 39.86 62
1/4/2005 12:55 53.89 40.08 59.4
1/4/2005 13:25 54.58 37.92 53.2
1/4/2005 13:55 51.79 39.2 62
1/4/2005 14:25 51.08 42.28 71.7
1/4/2005 14:55 47.53 45.28 91.8
1/4/2005 15:25 49.67 44.02 80.8
1/4/2005 15:55 50.38 40.64 69.1
1/4/2005 16:25 48.96 39.1 68.6
1/4/2005 16:55 48.25 41.56 77.5
1/4/2005 17:25 46.82 42.68 85.4
1/4/2005 17:55 46.1 43.86 91.8
1/4/2005 18:25 46.1 45.36 97.2
1/4/2005 18:55 45.38 44.34 96.1
1/4/2005 19:25 45.38 44.22 95.7
1/4/2005 19:55 45.38 43.7 93.8
1/4/2005 20:25 44.65 43.5 95.7
1/4/2005 20:55 43.92 43.28 97.6
1/4/2005 21:25 43.92 43.48 98.3
1/4/2005 21:55 43.92 43.28 97.6
1/4/2005 22:25 43.19 42.82 98.6
1/4/2005 22:55 41.72 41.36 98.6
1/4/2005 23:25 41.72 41.72 100
1/4/2005 23:55 41.72 41.72 100
1/5/2005 0:25 41.72 41.72 100.3
1/5/2005 0:55 42.46 42.46 101
1/5/2005 1:25 42.46 42.46 101
1/5/2005 1:55 41.72 41.72 101.3
1/5/2005 2:25 40.97 40.98 101.3
1/5/2005 2:55 40.97 40.98 101.6
1/5/2005 3:25 40.97 40.98 102.2
1/5/2005 3:55 40.23 40.22 102.2
1/5/2005 4:25 40.23 40.22 102.5
1/5/2005 4:55 40.23 40.22 102.2
1/5/2005 5:25 40.97 40.98 102.5
1/5/2005 5:55 40.23 40.22 102.2
1/5/2005 6:25 40.23 40.22 102.5
1/5/2005 6:55 40.23 40.22 102.5
1/5/2005 7:25 40.23 40.22 102.2
1/5/2005 7:55 40.97 40.98 102.2
1/5/2005 8:25 42.46 42.46 102.2
1/5/2005 8:55 44.65 42.76 93
1/5/2005 9:25 48.96 43.66 81.8
1/5/2005 9:55 51.08 42.6 72.6
1/5/2005 10:25 51.79 42.78 71.2
1/5/2005 10:55 53.19 42.38 66.6
1/5/2005 11:25 53.19 41.98 65.6
1/5/2005 11:55 52.49 41.9 67.1
1/5/2005 12:25 52.49 42.1 67.6
1/5/2005 12:55 52.49 42.48 68.6
1/5/2005 13:25 52.49 42.1 67.6
1/5/2005 13:55 53.89 42.46 65.1
1/5/2005 14:25 53.89 43.04 66.6
1/5/2005 14:55 52.49 42.1 67.6
1/5/2005 15:25 52.49 42.3 68.1
1/5/2005 15:55 51.08 38.96 63
1/5/2005 16:25 50.38 40.84 69.6
1/5/2005 16:55 48.96 39.88 70.7
1/5/2005 17:25 48.25 40.74 75.1
1/5/2005 17:55 47.53 40.4 76.1
1/5/2005 18:25 46.82 40.96 79.9
1/5/2005 18:55 46.1 40.26 79.9
1/5/2005 19:25 46.1 39.8 78.5
1/5/2005 19:55 45.38 39.84 80.8
1/5/2005 20:25 44.65 39.72 82.7
1/5/2005 20:55 43.92 40.38 87.2
1/5/2005 21:25 43.92 39.98 85.9
1/5/2005 21:55 43.92 40.1 86.3
1/5/2005 22:25 42.46 39.3 88.5
1/5/2005 22:55 43.19 40.04 88.5
1/5/2005 23:25 42.46 39.3 88.5
1/5/2005 23:55 43.92 39.72 85
1/6/2005 0:25 43.92 39.02 82.7
1/6/2005 0:55 43.92 39.3 83.6
1/6/2005 1:25 43.19 39.12 85.4
1/6/2005 1:55 42.46 37.86 83.6
1/6/2005 2:25 43.19 38.84 84.5
1/6/2005 2:55 43.19 38.02 81.8
1/6/2005 3:25 43.19 39.38 86.3
1/6/2005 3:55 43.19 38.58 83.6
1/6/2005 4:25 43.19 37.7 80.8
1/6/2005 4:55 42.46 35.78 77
1/6/2005 5:25 41.72 35.22 77.5
1/6/2005 5:55 42.46 34.12 72.1
1/6/2005 6:25 42.46 34.64 73.6
1/6/2005 6:55 42.46 34.8 74.1
1/6/2005 7:25 43.19 35 72.6
1/6/2005 7:55 43.19 34.34 70.7
1/6/2005 8:25 46.1 34.42 63.5
1/6/2005 8:55 48.25 32.04 53.2
1/6/2005 9:25 51.08 31 45.9
1/6/2005 9:55 51.08 31.86 47.5
1/6/2005 10:25 51.79 33.28 49
1/6/2005 10:55 52.49 33.14 47.5
1/6/2005 11:25 53.19 32.66 45.4
1/6/2005 11:55 55.28 31.9 40.8
1/6/2005 12:25 57.35 29.84 34.8
1/6/2005 12:55 58.73 26.2 28.5
1/6/2005 13:25 58.73 25.86 28.1
1/6/2005 13:55 58.73 26.62 29
1/6/2005 14:25 58.73 27.76 30.4
1/6/2005 14:55 59.42 30.94 33.8
1/6/2005 15:25 58.04 34.38 40.8
1/6/2005 15:55 57.35 36.16 44.9
1/6/2005 16:25 56.66 36.96 47.5
1/6/2005 16:55 55.28 37.54 51.1
1/6/2005 17:25 52.49 39.46 61
1/6/2005 17:55 51.08 40.94 68.1
1/6/2005 18:25 48.25 43.24 82.7
1/6/2005 18:55 47.53 43.38 85.4
1/6/2005 19:25 46.82 43.96 89.7
1/6/2005 19:55 46.1 43.74 91.4
1/6/2005 20:25 45.38 43.48 93
1/6/2005 20:55 44.65 42.86 93.4
1/6/2005 21:25 44.65 42.2 91
1/6/2005 21:55 45.38 42.04 88
1/6/2005 22:25 45.38 41.8 87.2
1/6/2005 22:55 45.38 41.42 85.9
1/6/2005 23:25 45.38 41.42 85.9
1/6/2005 23:55 45.38 42.04 88
1/7/2005 0:25 44.65 41.32 88
1/7/2005 0:55 44.65 41.82 89.7
1/7/2005 1:25 44.65 41.96 90.2
1/7/2005 1:55 44.65 42.76 93
1/7/2005 2:25 44.65 42.76 93
1/7/2005 2:55 44.65 42.98 93.8
1/7/2005 3:25 43.92 42.66 95.3
1/7/2005 3:55 43.92 42.66 95.3
1/7/2005 4:25 43.92 42.58 95
1/7/2005 4:55 43.19 41.94 95.3
1/7/2005 5:25 43.92 42.88 96.1
1/7/2005 5:55 43.92 42.48 94.6
1/7/2005 6:25 43.92 42.14 93.4
1/7/2005 6:55 44.65 42.86 93.4
1/7/2005 7:25 44.65 42.86 93.4
1/7/2005 7:55 44.65 42.76 93
1/7/2005 8:25 46.1 42.9 88.5
1/7/2005 8:55 48.25 41.9 78.5
1/7/2005 9:25 51.79 36.76 56.3
1/7/2005 9:55 53.89 36.26 51.1
1/7/2005 10:25 53.89 34.68 48
1/7/2005 10:55 55.28 33.72 43.9
1/7/2005 11:25 56.66 31.26 37.8
1/7/2005 11:55 57.35 31.88 37.8
1/7/2005 12:25 58.73 33.42 38.3
1/7/2005 12:55 59.42 33.38 37.3
1/7/2005 13:25 58.73 33.42 38.3
1/7/2005 13:55 59.42 32.36 35.8
1/7/2005 14:25 58.04 37.08 45.4
1/7/2005 14:55 57.35 32.84 39.3
1/7/2005 15:25 56.66 34.68 43.4
1/7/2005 15:55 55.97 38.68 52.1
1/7/2005 16:25 55.28 38.8 53.7
1/7/2005 16:55 53.89 41.18 62
1/7/2005 17:25 51.79 44.82 77
1/7/2005 17:55 50.38 45.48 83.2
1/7/2005 18:25 48.96 46.08 89.7
1/7/2005 18:55 48.25 45.98 91.8
1/7/2005 19:25 47.53 45.96 94.2
1/7/2005 19:55 46.1 44.74 95
1/7/2005 20:25 46.1 45.06 96.1
1/7/2005 20:55 45.38 44.74 97.6
1/7/2005 21:25 45.38 44.82 97.9
1/7/2005 21:55 46.82 46.36 98.3
1/7/2005 22:25 46.82 46.26 97.9
1/7/2005 22:55 46.82 46.18 97.6
1/7/2005 23:25 46.82 46.06 97.2
1/7/2005 23:55 46.82 46.18 97.6
1/8/2005 0:25 46.1 45.64 98.3
1/8/2005 0:55 46.82 46.44 98.6
1/8/2005 1:25 46.82 46.44 98.6
1/8/2005 1:55 47.53 47.08 98.3
1/8/2005 2:25 47.53 47.08 98.3
1/8/2005 2:55 47.53 46.98 97.9
1/8/2005 3:25 48.25 47.88 98.6
1/8/2005 3:55 48.25 47.8 98.3
1/8/2005 4:25 48.25 47.68 97.9
1/8/2005 4:55 48.25 47.8 98.3
1/8/2005 5:25 48.25 47.98 99
1/8/2005 5:55 48.25 48.24 100
1/8/2005 6:25 48.25 48.24 101.3
1/8/2005 6:55 48.25 48.24 101.6
1/8/2005 7:25 48.25 48.24 101.9
1/8/2005 7:55 48.96 48.96 102.2
1/8/2005 8:25 49.67 49.68 102.2
1/8/2005 8:55 50.38 50.38 101.9
1/8/2005 9:25 51.08 51.08 101.6
1/8/2005 9:55 51.79 51.78 100
1/8/2005 10:25 54.58 52.36 92.2
1/8/2005 10:55 56.66 52.34 85.4
1/8/2005 11:25 58.73 53.02 81.3
1/8/2005 11:55 60.8 52.86 75.1
1/8/2005 12:25 62.17 53.82 74.1
1/8/2005 12:55 62.85 53.4 71.2
1/8/2005 13:25 63.54 53.44 69.6
1/8/2005 13:55 63.54 52.64 67.6
1/8/2005 14:25 64.22 53.88 69.1
1/8/2005 14:55 64.22 54.7 71.2
1/8/2005 15:25 63.54 53.62 70.1
1/8/2005 15:55 62.85 54.12 73.1
1/8/2005 16:25 62.17 53.64 73.6
1/8/2005 16:55 60.8 53.72 77.5
1/8/2005 17:25 58.73 53.66 83.2
1/8/2005 17:55 57.35 53.18 85.9
1/8/2005 18:25 55.28 52.7 91
1/8/2005 18:55 53.89 52.14 93.8
1/8/2005 19:25 53.19 52 95.7
1/8/2005 19:55 52.49 51.52 96.5
1/8/2005 20:25 52.49 51.82 97.6
1/8/2005 20:55 51.79 51.22 97.9
1/8/2005 21:25 50.38 50 98.6
1/8/2005 21:55 51.08 50.82 99
1/8/2005 22:25 50.38 50 98.6
1/8/2005 22:55 51.79 51.52 99
1/8/2005 23:25 50.38 50 98.6
1/8/2005 23:55 48.96 48.58 98.6
1/9/2005 0:25 48.25 47.88 98.6
1/9/2005 0:55 47.53 47.34 99.3
1/9/2005 1:25 46.82 46.82 100
1/9/2005 1:55 46.82 46.82 100.3
1/9/2005 2:25 46.82 46.82 101
1/9/2005 2:55 47.53 47.54 100.6
1/9/2005 3:25 47.53 47.54 101.3
1/9/2005 3:55 47.53 47.54 101
1/9/2005 4:25 46.1 46.1 100.6
1/9/2005 4:55 46.1 46.1 100.6
1/9/2005 5:25 46.1 46.1 101.3
1/9/2005 5:55 46.82 46.82 101.9
1/9/2005 6:25 47.53 47.54 102.2
1/9/2005 6:55 46.82 46.82 102.2
1/9/2005 7:25 47.53 47.54 102.5
1/9/2005 7:55 48.96 48.96 102.5
1/9/2005 8:25 50.38 50.38 102.5
1/9/2005 8:55 53.89 51.2 90.6
1/9/2005 9:25 58.04 50.22 75.1
1/9/2005 9:55 58.73 53.02 81.3
1/9/2005 10:25 60.8 52.32 73.6
1/9/2005 10:55 64.22 49.8 59.4
1/9/2005 11:25 64.91 53.34 66.1
1/9/2005 11:55 66.28 50.28 56.3
1/9/2005 12:25 66.96 52.6 59.9
1/9/2005 12:55 69.02 47.34 45.9
1/9/2005 13:25 69.02 43.58 39.8
1/9/2005 13:55 70.39 46.8 42.9
1/9/2005 14:25 70.39 50.62 49.5
1/9/2005 14:55 69.02 51.3 53.2
1/9/2005 15:25 67.65 51.78 56.8
1/9/2005 15:55 66.96 51.38 57.3
1/9/2005 16:25 64.91 50.88 60.4
1/9/2005 16:55 63.54 50.74 63
1/9/2005 17:25 62.17 50.72 66.1
1/9/2005 17:55 61.48 50.08 66.1
1/9/2005 18:25 60.8 50.62 69.1
1/9/2005 18:55 60.8 50.22 68.1
1/9/2005 19:25 60.11 49.76 68.6
1/9/2005 19:55 60.11 49.76 68.6
1/9/2005 20:25 58.73 49.96 72.6
1/9/2005 20:55 59.42 50.1 71.2
1/9/2005 21:25 58.73 50.34 73.6
1/9/2005 21:55 55.97 50.8 82.7
1/9/2005 22:25 53.19 50.64 91
1/9/2005 22:55 52.49 50.52 93
1/9/2005 23:25 51.79 49.48 91.8
1/9/2005 23:55 51.08 49.58 94.6
1/10/2005 0:25 54.58 50.98 87.6
1/10/2005 0:55 51.08 49.14 93
1/10/2005 1:25 49.67 48.92 97.2
1/10/2005 1:55 49.67 49.3 98.6
1/10/2005 2:25 48.96 48.58 98.6
1/10/2005 2:55 49.67 49.22 98.3
1/10/2005 3:25 47.53 47.54 100
1/10/2005 3:55 47.53 47.42 99.6
1/10/2005 4:25 48.25 47.6 97.6
1/10/2005 4:55 46.82 45.76 96.1
1/10/2005 5:25 47.53 45.16 91.4
1/10/2005 5:55 46.82 44.8 92.6
1/10/2005 6:25 46.82 44.8 92.6
1/10/2005 6:55 46.1 44.74 95
1/10/2005 7:25 46.1 44.52 94.2
1/10/2005 7:55 47.53 45.5 92.6
1/10/2005 8:25 51.08 46.74 85
1/10/2005 8:55 54.58 46.16 73.1
1/10/2005 9:25 59.42 47.92 65.6
1/10/2005 9:55 62.17 42 47.5
1/10/2005 10:25 64.22 42.98 45.9
1/10/2005 10:55 65.59 43.94 45.4
1/10/2005 11:25 67.65 44.32 42.9
1/10/2005 11:55 70.39 40.18 33.3
1/10/2005 12:25 72.46 36.34 26.7
1/10/2005 12:55 73.84 39.18 28.5
1/10/2005 13:25 73.84 36.56 25.7
1/10/2005 13:55 73.84 40.5 30
1/10/2005 14:25 73.84 37.04 26.2
1/10/2005 14:55 72.46 43.5 35.3
1/10/2005 15:25 70.39 47.4 43.9
1/10/2005 15:55 69.02 47.04 45.4
1/10/2005 16:25 69.02 48.26 47.5
1/10/2005 16:55 67.65 50.02 53.2
1/10/2005 17:25 64.22 53.08 67.1
1/10/2005 17:55 62.17 54.2 75.1
1/10/2005 18:25 60.11 53.9 79.9
1/10/2005 18:55 57.35 53.98 88.5
1/10/2005 19:25 55.97 53.26 90.6
1/10/2005 19:55 55.28 52.94 91.8
1/10/2005 20:25 54.58 52.94 94.2
1/10/2005 20:55 54.58 53.26 95.3
1/10/2005 21:25 53.19 52.1 96.1
1/10/2005 21:55 53.19 52.3 96.8
1/10/2005 22:25 51.79 51.02 97.2
1/10/2005 22:55 51.79 51.32 98.3
1/10/2005 23:25 51.08 50.62 98.3
1/10/2005 23:55 50.38 50 98.6
1/11/2005 0:25 49.67 49.22 98.3
1/11/2005 0:55 49.67 49.3 98.6
1/11/2005 1:25 49.67 49.3 98.6
1/11/2005 1:55 48.96 48.58 98.6
1/11/2005 2:25 48.25 47.8 98.3
1/11/2005 2:55 47.53 47.34 99.3
1/11/2005 3:25 46.82 46.72 99.6
1/11/2005 3:55 46.82 46.82 100
1/11/2005 4:25 48.25 48.24 101.6
1/11/2005 4:55 48.96 48.96 101.9
1/11/2005 5:25 48.96 48.96 102.2
1/11/2005 5:55 49.67 49.68 102.2
1/11/2005 6:25 49.67 49.68 102.5
1/11/2005 6:55 49.67 49.68 102.5
1/11/2005 7:25 50.38 50.38 102.5
1/11/2005 7:55 51.08 51.08 102.8
1/11/2005 8:25 51.08 51.08 102.8
1/11/2005 8:55 51.79 51.78 102.8
1/11/2005 9:25 52.49 52.48 101.3
1/11/2005 9:55 52.49 52.38 99.6
1/11/2005 10:25 53.19 53.18 100.3
1/11/2005 10:55 53.19 53.18 101.6
1/11/2005 11:25 53.89 53.88 101.6
1/11/2005 11:55 54.58 54.58 100.3
1/11/2005 12:25 54.58 54.38 99.3
1/11/2005 12:55 55.28 55.28 100.3
1/11/2005 13:25 54.58 54.58 101.6
1/11/2005 13:55 54.58 54.58 102.5
1/11/2005 14:25 54.58 54.58 102.8
1/11/2005 14:55 53.89 53.88 102.8
1/11/2005 15:25 54.58 54.58 102.8
1/11/2005 15:55 54.58 54.58 102.5
1/11/2005 16:25 53.89 53.88 102.8
1/11/2005 16:55 53.89 53.88 102.8
1/11/2005 17:25 51.79 51.78 102.5
1/11/2005 17:55 51.79 51.78 102.2
1/11/2005 18:25 51.79 51.78 102.5
1/11/2005 18:55 51.08 51.08 102.5
1/11/2005 19:25 48.96 41.44 75.1
1/11/2005 19:55 46.82 32.54 57.3
1/11/2005 20:25 46.1 29.06 51.1
1/11/2005 20:55 45.38 31.66 58.4
1/11/2005 21:25 46.1 36.18 68.1
1/11/2005 21:55 44.65 36.1 71.7
1/11/2005 22:25 44.65 36.76 73.6
1/11/2005 22:55 43.92 37.98 79.4
1/11/2005 23:25 44.65 38.24 78
1/11/2005 23:55 43.19 38.3 82.7
1/12/2005 0:25 43.19 37.42 79.9
1/12/2005 0:55 42.46 36.26 78.5
1/12/2005 1:25 40.97 36.14 82.7
1/12/2005 1:55 40.97 35.54 80.8
1/12/2005 2:25 40.97 36.82 85
1/12/2005 2:55 39.48 36.86 90.2
1/12/2005 3:25 38.72 37.2 94.2
1/12/2005 3:55 38.72 37.6 95.7
1/12/2005 4:25 37.97 36.86 95.7
1/12/2005 4:55 37.2 36.1 95.7
1/12/2005 5:25 37.2 36.1 95.7
1/12/2005 5:55 37.97 36.12 93
1/12/2005 6:25 39.48 36.12 87.6
1/12/2005 6:55 38.72 36.1 90.2
1/12/2005 7:25 37.2 35.8 94.6
1/12/2005 7:55 38.72 37.72 96.1
1/12/2005 8:25 40.97 39.54 94.6
1/12/2005 8:55 43.92 39.56 84.5
1/12/2005 9:25 48.96 39.66 70.1
1/12/2005 9:55 51.79 42 69.1
1/12/2005 10:25 53.19 41.38 64.1
1/12/2005 10:55 54.58 41.18 60.4
1/12/2005 11:25 55.97 41.38 57.9
1/12/2005 11:55 57.35 37.86 48
1/12/2005 12:25 58.73 24.62 26.7
1/12/2005 12:55 59.42 24.3 25.7
1/12/2005 13:25 59.42 23.08 24.4
1/12/2005 13:55 59.42 22.18 23.5
1/12/2005 14:25 58.73 24.62 26.7
1/12/2005 14:55 58.04 24.4 27.1
1/12/2005 15:25 56.66 24.82 29
1/12/2005 15:55 55.97 26.88 32.4
1/12/2005 16:25 55.28 27.66 34.3
1/12/2005 16:55 53.19 28.8 38.8
1/12/2005 17:25 51.79 28.76 40.8
1/12/2005 17:55 50.38 29.28 43.9
1/12/2005 18:25 48.96 32.48 52.7
1/12/2005 18:55 48.96 31.7 51.1
1/12/2005 19:25 48.96 31.22 50.1
1/12/2005 19:55 49.67 31.58 49.5
1/12/2005 20:25 49.67 32.84 52.1
1/12/2005 20:55 49.67 33.36 53.2
1/12/2005 21:25 48.25 33.68 56.8
1/12/2005 21:55 47.53 34.98 61.5
1/12/2005 22:25 47.53 37 66.6
1/12/2005 22:55 46.1 37.64 72.1
1/12/2005 23:25 45.38 37.62 74.1
1/12/2005 23:55 43.92 37.2 77
1/13/2005 0:25 43.92 34.66 69.6
1/13/2005 0:55 43.19 34.12 70.1
1/13/2005 1:25 43.92 32.18 63
1/13/2005 1:55 46.82 26.58 44.9
1/13/2005 2:25 48.96 25.02 38.8
1/13/2005 2:55 50.38 22.98 33.8
1/13/2005 3:25 50.38 21.24 31.4
1/13/2005 3:55 50.38 21.24 31.4
1/13/2005 4:25 48.25 22.8 36.3
1/13/2005 4:55 46.1 25.12 43.4
1/13/2005 5:25 48.25 23.12 36.8
1/13/2005 5:55 46.82 24.58 41.3
1/13/2005 6:25 48.25 23.12 36.8
1/13/2005 6:55 48.25 22.8 36.3
1/13/2005 7:25 50.38 20.48 30.4
1/13/2005 7:55 50.38 23.68 34.8
1/13/2005 8:25 51.79 24.92 34.8
1/13/2005 8:55 51.79 29.06 41.3
1/13/2005 9:25 53.89 28.78 37.8
1/13/2005 9:55 58.73 29.98 33.3
01/13/05 11:34 60.11 31.18 33.3
01/13/05 12:04 57.35 32.84 39.3
01/13/05 12:34 56.66 40.08 53.7
01/13/05 13:04 58.73 32.76 37.3
01/13/05 13:34 63.54 31.6 30
01/13/05 14:04 58.04 21.02 23.5
01/13/05 14:34 58.73 22.88 24.8
01/13/05 15:04 60.8 20.46 20.8
01/13/05 15:34 59.42 17.34 19.1
01/13/05 16:04 56.66 17.58 21.3
01/13/05 16:34 56.66 19.86 23.5
01/13/05 17:04 58.04 16.2 19.1
01/13/05 17:34 57.35 15.64 19.1
01/13/05 18:04 55.28 15.42 20.4
01/13/05 18:34 54.58 15.3 20.8
01/13/05 19:04 53.19 17.78 24.4
01/13/05 19:34 51.79 21.4 30
01/13/05 20:04 51.08 22.6 32.4
01/13/05 20:34 52.49 23.1 31.4
01/13/05 21:04 52.49 25.54 34.8
01/13/05 21:34 52.49 23.1 31.4
01/13/05 22:04 52.49 22.02 30
01/13/05 22:34 52.49 21.62 29.5
01/13/05 23:04 52.49 22.02 30
01/13/05 23:34 51.79 23.58 32.9
01/14/05 00:04 50.38 25.34 37.3
01/14/05 00:34 51.08 21.86 31.4
01/14/05 01:04 51.79 22.1 30.9
01/14/05 01:34 50.38 21.24 31.4
01/14/05 02:04 51.79 18.68 26.7
01/14/05 02:34 52.49 18.4 25.7
01/14/05 03:04 50.38 19.78 29.5
01/14/05 03:34 50.38 20.88 30.9
01/14/05 04:04 49.67 22.36 33.8
01/14/05 04:34 48.25 27.34 43.9
01/14/05 05:04 48.96 21.1 32.9
01/14/05 05:34 49.67 21 31.9
01/14/05 06:04 46.82 25.5 42.9
01/14/05 06:34 46.82 23.4 39.3
01/14/05 07:04 46.1 26.2 45.4
01/14/05 07:34 46.1 26.72 46.4
01/14/05 08:04 45.38 31.2 57.3
01/14/05 08:34 46.1 29.3 51.6
01/14/05 09:04 46.1 29.54 52.1
01/14/05 09:34 48.25 22.14 35.3
01/14/05 10:04 52.49 13.54 20.8
01/14/05 10:34 53.89 12.3 18.7
01/14/05 11:04 55.28 14.4 19.5
01/14/05 11:34 55.97 14.02 18.7
01/14/05 12:04 55.97 16 20.4
01/14/05 12:34 57.35 12.46 16.6
01/14/05 13:04 59.42 10.78 14.3
01/14/05 13:34 62.85 12.2 13.5
01/14/05 14:04 65.59 9.56 10.9
01/14/05 14:34 66.28 7.06 9.5
01/14/05 15:04 67.65 4.62 8.1
01/14/05 15:34 65.59 10.96 11.6
01/14/05 16:04 62.85 11.54 13.1
01/14/05 16:34 61.48 17.02 17.5
01/14/05 17:04 61.48 21.6 21.3
01/14/05 17:34 61.48 21.6 21.3
01/14/05 18:04 58.73 22 23.9
01/14/05 18:34 56.66 22.4 26.2
01/14/05 19:04 53.89 25.06 32.4
01/14/05 19:34 52.49 27.22 37.3
01/14/05 20:04 51.79 29.36 41.8
01/14/05 20:34 51.08 30.74 45.4
01/14/05 21:04 48.96 30.16 48
01/14/05 21:34 48.25 30.8 50.6
01/14/05 22:04 46.82 31.4 54.7
01/14/05 22:34 46.1 31 55.3
01/14/05 23:04 46.1 27.54 48
01/14/05 23:34 44.65 26.7 49
01/15/05 00:04 44.65 24.62 44.9
01/15/05 00:34 46.82 22.48 37.8
01/15/05 01:04 43.19 26.38 51.1
01/15/05 01:34 43.92 23.94 44.9
01/15/05 02:04 42.46 25.46 50.6
01/15/05 02:34 48.25 17.94 29.5
01/15/05 03:04 47.53 18.76 31.4
01/15/05 03:34 48.96 16.26 26.7
01/15/05 04:04 51.08 14.26 22.6
01/15/05 04:34 51.79 12.52 20.4
01/15/05 05:04 50.38 14.06 23
01/15/05 05:34 48.96 14.56 24.8
01/15/05 06:04 46.82 16.7 29.5
01/15/05 06:34 50.38 13.66 22.6
01/15/05 07:04 52.49 12.66 20
01/15/05 07:34 53.19 10.24 17.5
01/15/05 08:04 52.49 12.66 20
01/15/05 08:34 53.19 12.2 19.1
01/15/05 09:04 53.19 12.2 19.1
01/15/05 09:34 54.58 12.38 18.3
01/15/05 10:04 55.28 12.46 17.9
01/15/05 10:34 56.66 12.44 17
01/15/05 11:04 58.04 13.02 16.6
01/15/05 11:34 60.11 13.56 15.8
01/15/05 12:04 61.48 12.42 14.3
01/15/05 12:34 62.17 12.96 14.3
01/15/05 13:04 63.54 12.08 13.1
01/15/05 13:34 64.22 11.38 12.4
01/15/05 14:04 64.22 11.38 12.4
01/15/05 14:34 64.91 10.42 11.6
01/15/05 15:04 66.96 7.58 9.5
01/15/05 15:34 69.02 7.46 8.8
01/15/05 16:04 71.08 9.74 9.1
01/15/05 16:34 69.71 0.4 6.2
01/15/05 17:04 68.33 -1.64 5.9
01/15/05 17:34 66.96 -1.58 6.2
01/15/05 18:04 65.59 0.56 7.2
01/15/05 18:34 62.85 1.04 8.1
01/15/05 19:04 60.11 7.44 12
01/15/05 19:34 59.42 8.14 12.7
01/15/05 20:04 59.42 11.84 15
01/15/05 20:34 58.73 10.68 14.6
01/15/05 21:04 58.73 11.3 15
01/15/05 21:34 58.04 10.74 15
01/15/05 22:04 58.73 7.6 12.7
01/15/05 22:34 55.28 13.92 19.1
01/15/05 23:04 52.49 16.72 23.9
01/15/05 23:34 51.79 16.12 23.9
01/16/05 00:04 51.79 14.84 22.6
01/16/05 00:34 51.79 11.52 19.5
01/16/05 01:04 54.58 6.92 14.3
01/16/05 01:34 52.49 10.18 17.9
01/16/05 02:04 52.49 9.68 17.5
01/16/05 02:34 53.19 7.98 15.8
01/16/05 03:04 57.35 3.98 11.3
01/16/05 03:34 58.73 0.4 9.1
01/16/05 04:04 57.35 -1.36 8.8
01/16/05 04:34 55.97 -0.14 9.8
01/16/05 05:04 56.66 -1.88 8.8
01/16/05 05:34 51.79 8.46 17
01/16/05 06:04 51.08 5.14 15
01/16/05 06:34 50.38 8.44 17.9
01/16/05 07:04 53.19 3.9 13.1
01/16/05 07:34 49.67 9.3 19.1
01/16/05 08:04 53.89 5.1 13.5
01/16/05 08:34 55.97 6.1 13.1
01/16/05 09:04 53.89 10.16 17
01/16/05 09:34 55.97 8.02 14.3
01/16/05 10:04 56.66 17.02 20.8
01/16/05 10:34 60.11 11.78 14.6
01/16/05 11:04 64.22 1.26 7.8
01/16/05 11:34 66.96 2.44 7.5
01/16/05 12:04 69.02 0.9 6.5
01/16/05 12:34 71.08 -0.76 5.6
01/16/05 13:04 71.77 -7.78 3.9
01/16/05 13:34 72.46 -13.24 2.9
01/16/05 14:04 73.15 -14.94 2.6
01/16/05 14:34 75.22 -11.4 2.9
01/16/05 15:04 76.62 -7.26 3.4
01/16/05 15:34 75.92 -13.12 2.6
01/16/05 16:04 76.62 -16.84 2.1
01/16/05 16:34 77.31 -10.02 2.9
01/16/05 17:04 77.31 4.82 5.9
01/16/05 17:34 75.22 8.54 7.5
01/16/05 18:04 73.15 8.72 8.1
01/16/05 18:34 68.33 10.2 10.2
01/16/05 19:04 62.85 16.92 16.6
01/16/05 19:34 60.11 19.44 20.4
01/16/05 20:04 59.42 18.86 20.4
01/16/05 20:34 58.04 18.72 21.3
01/16/05 21:04 55.28 21.66 26.7
01/16/05 21:34 53.89 23.92 30.9
01/16/05 22:04 52.49 23.1 31.4
01/16/05 22:34 51.08 24.98 35.8
01/16/05 23:04 51.08 24.64 35.3
01/16/05 23:34 54.58 19.34 24.8
01/17/05 00:04 58.04 16.2 19.1
01/17/05 00:34 55.97 17.84 22.1
01/17/05 01:04 52.49 23.46 31.9
01/17/05 01:34 51.08 23.26 33.3
01/17/05 02:04 51.08 18.84 27.6
01/17/05 02:34 53.89 14.28 20.4
01/17/05 03:04 53.89 14.72 20.8
01/17/05 03:34 51.79 20.6 29
01/17/05 04:04 48.96 24.08 37.3
01/17/05 04:34 48.25 23.44 37.3
01/17/05 05:04 48.25 24.98 39.8
01/17/05 05:34 47.53 25.22 41.3
01/17/05 06:04 47.53 25.52 41.8
01/17/05 06:34 46.82 26.04 43.9
01/17/05 07:04 50.38 20.48 30.4
01/17/05 07:34 55.28 17.26 22.1
01/17/05 08:04 49.67 25.34 38.3
01/17/05 08:34 47.53 24.64 40.3
01/17/05 09:04 51.08 20 29
01/17/05 09:34 59.42 15.86 17.9
01/17/05 10:04 62.85 15.2 15.4
01/17/05 10:34 64.91 13.84 13.5
01/17/05 11:04 66.28 17.94 15.4
01/17/05 11:34 67.65 19.04 15.4
01/17/05 12:04 68.33 19.58 15.4
01/17/05 12:34 71.08 19.38 13.9
01/17/05 13:04 72.46 19.78 13.5
01/17/05 13:34 73.15 18.36 12.4
01/17/05 14:04 72.46 19.08 13.1
01/17/05 14:34 73.84 20.18 13.1
01/17/05 15:04 75.22 19.98 12.4
01/17/05 15:34 74.53 19.44 12.4
01/17/05 16:04 75.22 19.2 12
01/17/05 16:34 75.22 19.98 12.4
01/17/05 17:04 73.84 19.44 12.7
01/17/05 17:34 73.15 18.9 12.7
01/17/05 18:04 71.77 19.92 13.9
01/17/05 18:34 69.02 22.46 17
01/17/05 19:04 64.91 26.8 23.5
01/17/05 19:34 64.22 26.22 23.5
01/17/05 20:04 64.22 26.64 23.9
01/17/05 20:34 63.54 26.94 24.8
01/17/05 21:04 62.85 28.52 27.1
01/17/05 21:34 61.48 30.14 30.4
01/17/05 22:04 61.48 30.54 30.9
01/17/05 22:34 61.48 29.82 30
01/17/05 23:04 61.48 30.14 30.4
01/17/05 23:34 60.8 29.22 30
01/18/05 00:04 57.35 31.54 37.3
01/18/05 00:34 55.28 31.9 40.8
01/18/05 01:04 58.73 28.54 31.4
01/18/05 01:34 59.42 28.34 30.4
01/18/05 02:04 59.42 28.74 30.9
01/18/05 02:34 59.42 29.52 31.9
01/18/05 03:04 59.42 29.9 32.4
01/18/05 03:34 58.73 30.7 34.3
01/18/05 04:04 56.66 32.54 39.8
01/18/05 04:34 58.04 31.82 36.8
01/18/05 05:04 58.04 31.82 36.8
01/18/05 05:34 55.97 32.22 40.3
01/18/05 06:04 60.11 29.34 30.9
01/18/05 06:34 60.11 30.12 31.9
01/18/05 07:04 60.8 29.54 30.4
01/18/05 07:34 60.8 29.22 30
01/18/05 08:04 58.73 30.34 33.8
01/18/05 08:34 58.04 30.44 34.8
01/18/05 09:04 58.04 30.1 34.3
01/18/05 09:34 59.42 31.66 34.8
01/18/05 10:04 60.8 31.78 33.3
01/18/05 10:34 63.54 29.98 28.1
01/18/05 11:04 66.28 29.26 24.8
01/18/05 11:34 67.65 29.1 23.5
01/18/05 12:04 68.33 28.18 22.1
01/18/05 12:34 69.71 27.86 20.8
01/18/05 13:04 70.39 27.46 20
01/18/05 13:34 71.08 27.42 19.5
01/18/05 14:04 71.77 26.98 18.7
01/18/05 14:34 73.84 27.06 17.5
01/18/05 15:04 75.22 24.46 15
01/18/05 15:34 75.22 24.46 15
01/18/05 16:04 75.22 23.82 14.6
01/18/05 16:34 75.22 22.66 13.9
01/18/05 17:04 76.62 26.2 15.4
01/18/05 17:34 74.53 25.16 15.8
01/18/05 18:04 72.46 25.24 17
01/18/05 18:34 69.02 26.34 20
01/18/05 19:04 66.28 28.36 23.9
01/18/05 19:34 64.91 28.98 25.7
01/18/05 20:04 64.22 29.32 26.7
01/18/05 20:34 62.85 31 30
01/18/05 21:04 62.17 30.74 30.4
01/18/05 21:34 61.48 30.94 31.4
01/18/05 22:04 59.42 30.94 33.8
01/18/05 22:34 58.04 30.8 35.3
01/18/05 23:04 61.48 28.22 28.1
01/18/05 23:34 59.42 29.52 31.9
01/19/05 00:04 61.48 26.52 26.2
01/19/05 00:34 62.17 26.64 25.7
01/19/05 01:04 64.22 25.28 22.6
01/19/05 01:34 64.22 25.28 22.6
01/19/05 02:04 64.91 24.44 21.3
01/19/05 02:34 64.91 23.88 20.8
01/19/05 03:04 64.22 24.32 21.7
01/19/05 03:34 64.22 25.28 22.6
01/19/05 04:04 60.8 26.76 27.1
01/19/05 04:34 58.73 27.44 30
01/19/05 05:04 56.66 29.92 35.8
01/19/05 05:34 54.58 31.28 40.8
01/19/05 06:04 54.58 30.66 39.8
01/19/05 06:34 53.19 32.66 45.4
01/19/05 07:04 55.97 31.28 38.8
01/19/05 07:34 54.58 30.98 40.3
01/19/05 08:04 58.04 28.7 32.4
01/19/05 08:34 61.48 26.98 26.7
01/19/05 09:04 62.85 27.22 25.7
01/19/05 09:34 64.91 27.2 23.9
01/19/05 10:04 66.96 26.16 21.3
01/19/05 10:34 66.96 26.6 21.7
01/19/05 11:04 69.02 26.82 20.4
01/19/05 11:34 70.39 26.36 19.1
01/19/05 12:04 71.77 25.92 17.9
01/19/05 12:34 72.46 25.94 17.5
01/19/05 13:04 72.46 24.68 16.6
01/19/05 13:34 72.46 25.24 17
01/19/05 14:04 73.15 24.64 16.2
01/19/05 14:34 73.15 25.22 16.6
01/19/05 15:04 73.15 24.64 16.2
01/19/05 15:34 74.53 23.28 14.6
01/19/05 16:04 73.15 24.64 16.2
01/19/05 16:34 70.39 30.88 23
01/19/05 17:04 69.02 32.46 25.7
01/19/05 17:34 67.65 32.24 26.7
01/19/05 18:04 67.65 30.92 25.3
01/19/05 18:34 66.96 31.66 26.7
01/19/05 19:04 66.28 30.6 26.2
01/19/05 19:34 66.28 29.76 25.3
01/19/05 20:04 64.91 31.5 28.5
01/19/05 20:34 63.54 36.7 36.8
01/19/05 21:04 64.91 31.16 28.1
01/19/05 21:34 66.28 30.6 26.2
01/19/05 22:04 66.96 28.52 23.5
01/19/05 22:34 67.65 26.72 21.3
01/19/05 23:04 66.28 29.76 25.3
01/19/05 23:34 64.22 31.34 29
01/20/05 00:04 62.85 35.4 35.8
01/20/05 00:34 62.85 36.44 37.3
01/20/05 01:04 63.54 35.28 34.8
01/20/05 01:34 62.85 35.04 35.3
01/20/05 02:04 61.48 34.54 36.3
01/20/05 02:34 60.8 35.6 38.8
01/20/05 03:04 60.8 36.54 40.3
01/20/05 03:34 60.11 38.1 43.9
01/20/05 04:04 60.11 34.66 38.3
01/20/05 04:34 59.42 38.32 45.4
01/20/05 05:04 59.42 40.54 49.5
01/20/05 05:34 58.04 46.6 65.6
01/20/05 06:04 56.66 51.46 82.7
01/20/05 06:34 56.66 50.24 79
01/20/05 07:04 55.97 48.88 77
01/20/05 07:34 55.28 52.46 90.2
01/20/05 08:04 55.28 51.78 88
01/20/05 08:34 55.28 53.76 94.6
01/20/05 09:04 55.28 53.28 93
01/20/05 09:34 55.97 53.26 90.6
01/20/05 10:04 57.35 53.02 85.4
01/20/05 10:34 58.04 54.92 89.3
01/20/05 11:04 59.42 54.92 85
01/20/05 11:34 61.48 53.54 75.1
01/20/05 12:04 60.11 56.96 89.3
01/20/05 12:34 60.8 57.1 87.6
01/20/05 13:04 61.48 58.7 90.6
01/20/05 13:34 62.17 56.84 82.7
01/20/05 14:04 63.54 55.14 74.1
01/20/05 14:34 64.91 53.12 65.6
01/20/05 15:04 66.96 50.92 56.3
01/20/05 15:34 70.39 48.3 45.4
01/20/05 16:04 73.84 44.72 35.3
01/20/05 16:34 73.84 45.82 36.8
01/20/05 17:04 74.53 46.42 36.8
01/20/05 17:34 72.46 47.32 40.8
01/20/05 18:04 70.39 50.06 48.5
01/20/05 18:34 69.02 50.2 51.1
01/20/05 19:04 65.59 52.68 63
01/20/05 19:34 64.22 52.68 66.1
01/20/05 20:04 62.85 53.74 72.1
01/20/05 20:34 63.54 54.24 71.7
01/20/05 21:04 58.73 56.36 91.8
01/20/05 21:34 56.66 55.24 95
01/20/05 22:04 55.97 54.88 96.1
01/20/05 22:34 55.97 55.3 97.6
01/20/05 23:04 55.28 54.88 98.6
01/20/05 23:34 55.97 55.3 97.6
01/21/05 00:04 55.28 54.7 97.9
01/21/05 00:34 54.58 54.58 100
01/21/05 01:04 54.58 54.58 100.6
01/21/05 01:34 53.89 53.88 101
01/21/05 02:04 54.58 54.58 101.6
01/21/05 02:34 54.58 54.58 101
01/21/05 03:04 54.58 54.58 100.3
01/21/05 03:34 53.89 53.88 100.6
01/21/05 04:04 52.49 52.48 101.3
01/21/05 04:34 51.79 51.78 101.6
01/21/05 05:04 51.79 51.78 102.2
01/21/05 05:34 51.79 51.78 102.2
01/21/05 06:04 51.08 51.08 102.2
01/21/05 06:34 51.08 51.08 102.2
01/21/05 07:04 50.38 50.38 102.2
01/21/05 07:34 49.67 49.68 102.2
01/21/05 08:04 49.67 49.68 102.5
01/21/05 08:34 49.67 49.68 102.5
01/21/05 09:04 48.96 48.96 102.5
01/21/05 09:34 51.08 51.08 102.5
01/21/05 10:04 53.19 53.18 102.2
01/21/05 10:34 55.97 55.98 101.3
01/21/05 11:04 58.04 54.66 88.5
01/21/05 11:34 61.48 52.6 72.6
01/21/05 12:04 63.54 52.44 67.1
01/21/05 12:34 64.22 53.88 69.1
01/21/05 13:04 64.91 53.12 65.6
01/21/05 13:34 66.28 51.94 59.9
01/21/05 14:04 67.65 52.54 58.4
01/21/05 14:34 68.33 51.94 55.8
01/21/05 15:04 69.71 50.58 50.6
01/21/05 15:34 70.39 49.78 48
01/21/05 16:04 71.08 51.56 50.1
01/21/05 16:34 69.71 52.44 54.2
01/21/05 17:04 67.65 54.82 63.5
01/21/05 17:34 63.54 60.2 88.9
01/21/05 18:04 59.42 56.28 89.3
01/21/05 18:34 59.42 57.28 92.6
01/21/05 19:04 58.73 57.3 95
01/21/05 19:34 58.04 56.82 95.7
01/21/05 20:04 58.04 56.94 96.1
01/21/05 20:34 58.04 57.06 96.5
01/21/05 21:04 57.35 57.08 99
01/21/05 21:34 56.66 56.66 100
01/21/05 22:04 56.66 56.66 101
01/21/05 22:34 56.66 56.66 101.3
01/21/05 23:04 56.66 55.34 95.3
01/21/05 23:34 56.66 54.54 92.6
01/22/05 00:04 55.97 55.18 97.2
01/22/05 00:34 55.97 55.78 99.3
01/22/05 01:04 55.97 55.3 97.6
01/22/05 01:34 55.28 55.16 99.6
01/22/05 02:04 55.28 55.28 100.3
01/22/05 02:34 55.28 55.28 100.6
01/22/05 03:04 55.97 55.98 100.3
01/22/05 03:34 55.28 55.28 100.6
01/22/05 04:04 55.28 55.28 101.3
01/22/05 04:34 55.28 55.28 101
01/22/05 05:04 55.28 55.28 101.6
01/22/05 05:34 54.58 54.58 101.9
01/22/05 06:04 55.28 55.28 102.2
01/22/05 06:34 54.58 54.58 102.2
01/22/05 07:04 55.97 55.98 100.3
01/22/05 07:34 55.97 54.88 96.1
01/22/05 08:04 55.97 54.64 95.3
01/22/05 08:34 54.58 54 97.9
01/22/05 09:04 55.28 54.6 97.6
01/22/05 09:34 56.66 53.16 88
01/22/05 10:04 57.35 52.6 84.1
01/22/05 10:34 58.04 52.36 81.3
01/22/05 11:04 58.73 51.06 75.6
01/22/05 11:34 58.73 50.7 74.6
01/22/05 12:04 60.11 50.96 71.7
01/22/05 12:34 60.8 48.8 64.6
01/22/05 13:04 61.48 48.14 61.5
01/22/05 13:34 62.85 47.32 56.8
01/22/05 14:04 62.17 46.68 56.8
01/22/05 14:34 63.54 47.24 55.3
01/22/05 15:04 64.22 46.3 52.1
01/22/05 15:34 63.54 48.46 57.9
01/22/05 16:04 64.22 45.8 51.1
01/22/05 16:34 62.85 45.58 53.2
01/22/05 17:04 62.17 43.38 50.1
01/22/05 17:34 61.48 43.26 51.1
01/22/05 18:04 61.48 42.74 50.1
01/22/05 18:34 58.73 45.98 62.5
01/22/05 19:04 56.66 46.86 69.6
01/22/05 19:34 55.97 47.48 73.1
01/22/05 20:04 55.97 47.48 73.1
01/22/05 20:34 55.28 46.64 72.6
01/22/05 21:04 55.97 46.8 71.2
01/22/05 21:34 55.97 45.22 67.1
01/22/05 22:04 55.97 45.42 67.6
01/22/05 22:34 56.66 45.88 67.1
01/22/05 23:04 55.97 44.64 65.6
01/22/05 23:34 55.28 43.98 65.6
01/23/05 00:04 55.28 44.96 68.1
01/23/05 00:34 55.28 45.52 69.6
01/23/05 01:04 55.97 46.98 71.7
01/23/05 01:34 56.66 48.7 74.6
01/23/05 02:04 56.66 49.72 77.5
01/23/05 02:34 57.35 50.08 76.6
01/23/05 03:04 57.35 50.08 76.6
01/23/05 03:34 57.35 51.22 79.9
01/23/05 04:04 56.66 52.9 87.2
01/23/05 04:34 56.66 52.5 85.9
01/23/05 05:04 56.66 51.92 84.1
01/23/05 05:34 56.66 51.92 84.1
01/23/05 06:04 56.66 52.5 85.9
01/23/05 06:34 55.97 52.62 88.5
01/23/05 07:04 55.28 52.06 88.9
01/23/05 07:34 55.97 51.08 83.6
01/23/05 08:04 55.97 51.54 85
01/23/05 08:34 56.66 51.3 82.2
01/23/05 09:04 56.66 51.46 82.7
01/23/05 09:34 58.04 51.58 79
01/23/05 10:04 58.04 50.88 77
01/23/05 10:34 59.42 50.62 72.6
01/23/05 11:04 60.8 49.82 67.1
01/23/05 11:34 62.85 49.66 62
01/23/05 12:04 63.54 49.16 59.4
01/23/05 12:34 64.91 49.46 57.3
01/23/05 13:04 64.91 48.22 54.7
01/23/05 13:34 64.91 47.74 53.7
01/23/05 14:04 62.85 48.06 58.4
01/23/05 14:34 68.33 46.72 45.9
01/23/05 15:04 64.91 49.74 57.9
01/23/05 15:34 63.54 49.16 59.4
01/23/05 16:04 61.48 50.68 67.6
01/23/05 16:34 61.48 48.78 63
01/23/05 17:04 62.17 46.44 56.3
01/23/05 17:34 64.91 45.32 49
01/23/05 18:04 62.85 49.44 61.5
01/23/05 18:34 60.8 49.42 66.1
01/23/05 19:04 58.73 50.52 74.1
01/23/05 19:34 57.35 50.74 78.5
01/23/05 20:04 56.66 52.06 84.5
01/23/05 20:34 55.97 51.94 86.3
01/23/05 21:04 55.97 50.96 83.2
01/23/05 21:34 55.97 50.04 80.4
01/23/05 22:04 55.28 50.98 85.4
01/23/05 22:34 55.28 51.14 85.9
01/23/05 23:04 53.89 50.3 87.6
01/23/05 23:34 52.49 50.52 93
01/24/05 00:04 50.38 49.72 97.6
01/24/05 00:34 49.67 49.48 99.3
01/24/05 01:04 48.96 48.7 99
01/24/05 01:34 48.96 48.7 99
01/24/05 02:04 48.25 48.06 99.3
01/24/05 02:34 48.25 48.24 100
01/24/05 03:04 48.25 48.24 100
01/24/05 03:34 47.53 47.54 100.3
01/24/05 04:04 48.25 48.14 99.6
01/24/05 04:34 46.82 46.82 100.3
01/24/05 05:04 46.82 46.82 101
01/24/05 05:34 46.82 46.82 101.3
01/24/05 06:04 46.1 46.1 101.6
01/24/05 06:34 45.38 45.38 101.6
01/24/05 07:04 45.38 45.38 101.9
01/24/05 07:34 45.38 45.38 102.2
01/24/05 08:04 46.1 46.1 101.9
01/24/05 08:34 45.38 45.38 102.2
01/24/05 09:04 46.1 46.1 101.9
01/24/05 09:34 47.53 47.54 101.6
01/24/05 10:04 50.38 50.38 101
01/24/05 10:34 53.19 52.52 97.6
01/24/05 11:04 58.04 47.98 69.1
01/24/05 11:34 61.48 48.36 62
01/24/05 12:04 64.91 47.98 54.2
01/24/05 12:34 64.91 46.68 51.6
01/24/05 13:04 67.65 46.72 47
01/24/05 13:34 66.96 48.06 50.6
01/24/05 14:04 67.65 47.56 48.5
01/24/05 14:34 69.71 43.86 39.3
01/24/05 15:04 71.77 37.04 28.1
01/24/05 15:34 72.46 37.64 28.1
01/24/05 16:04 73.15 41.48 31.9
01/24/05 16:34 72.46 44.6 36.8
01/24/05 17:04 67.65 44.62 43.4
01/24/05 17:34 69.71 43.86 39.3
01/24/05 18:04 64.91 49.24 56.8
01/24/05 18:34 62.17 50.1 64.6
01/24/05 19:04 60.8 50.42 68.6
01/24/05 19:34 58.73 51.56 77
01/24/05 20:04 57.35 51.38 80.4
01/24/05 20:34 55.97 52.06 86.7
01/24/05 21:04 55.28 52.18 89.3
01/24/05 21:34 54.58 52.02 91
01/24/05 22:04 53.89 52.38 94.6
01/24/05 22:34 53.89 52.38 94.6
01/24/05 23:04 53.19 52.1 96.1
01/24/05 23:34 55.28 50.7 84.5
01/25/05 00:04 55.28 49.94 82.2
01/25/05 00:34 53.19 50.52 90.6
01/25/05 01:04 53.19 49.34 86.7
01/25/05 01:34 53.89 44 69.1
01/25/05 02:04 53.19 48.64 84.5
01/25/05 02:34 52.49 46.48 79.9
01/25/05 03:04 52.49 46.3 79.4
01/25/05 03:34 54.58 38.4 54.2
01/25/05 04:04 54.58 39.6 56.8
01/25/05 04:34 52.49 43.04 70.1
01/25/05 05:04 51.08 44 76.6
01/25/05 05:34 50.38 46.32 85.9
01/25/05 06:04 49.67 47.16 91
01/25/05 06:34 52.49 45.02 75.6
01/25/05 07:04 55.28 43.12 63.5
01/25/05 07:34 55.28 43.12 63.5
01/25/05 08:04 53.89 45.48 73.1
01/25/05 08:34 51.79 45.96 80.4
01/25/05 09:04 55.28 43.98 65.6
01/25/05 09:34 56.66 42.48 58.9
01/25/05 10:04 57.35 43.56 59.9
01/25/05 10:34 60.11 42.5 52.1
01/25/05 11:04 61.48 41.36 47.5
01/25/05 11:34 64.22 40.24 41.3
01/25/05 12:04 65.59 39.54 38.3
01/25/05 12:34 68.33 38.08 32.9
01/25/05 13:04 71.08 38.86 30.9
01/25/05 13:34 71.08 40.48 32.9
01/25/05 14:04 71.08 41.54 34.3
01/25/05 14:34 71.08 44.42 38.3
01/25/05 15:04 69.71 44.86 40.8
01/25/05 15:34 69.02 45.86 43.4
01/25/05 16:04 67.65 46.72 47
01/25/05 16:34 66.28 46.84 49.5
01/25/05 17:04 64.91 48.76 55.8
01/25/05 17:34 63.54 47.72 56.3
01/25/05 18:04 62.85 48.06 58.4
01/25/05 18:34 62.17 50.32 65.1
01/25/05 19:04 61.48 50.88 68.1
01/25/05 19:34 60.8 52.32 73.6
01/25/05 20:04 61.48 52.26 71.7
01/25/05 20:34 60.8 54.74 80.4
01/25/05 21:04 60.11 56.54 88
01/25/05 21:34 59.42 56.02 88.5
01/25/05 22:04 59.42 54.46 83.6
01/25/05 22:34 59.42 52.4 77.5
01/25/05 23:04 58.04 56.26 93.8
01/25/05 23:34 56.66 56.66 101.6
01/26/05 00:04 55.97 55.98 101.3
01/26/05 00:34 55.28 55.28 101.6
01/26/05 01:04 55.28 55.28 101.6
01/26/05 01:34 54.58 54.2 98.6
01/26/05 02:04 54.58 54.3 99
01/26/05 02:34 54.58 54.48 99.6
01/26/05 03:04 53.89 53.88 100.6
01/26/05 03:34 53.19 53.18 101.3
01/26/05 04:04 53.89 53.88 101.3
01/26/05 04:34 53.89 53.88 101.3
01/26/05 05:04 53.89 53.88 101.6
01/26/05 05:34 53.89 53.88 101.9
01/26/05 06:04 53.89 53.88 101.9
01/26/05 06:34 53.89 53.88 102.5
01/26/05 07:04 53.89 53.88 102.2
01/26/05 07:34 53.89 53.88 102.2
01/26/05 08:04 53.89 53.88 102.2
01/26/05 08:34 53.89 53.88 102.2
01/26/05 09:04 53.89 53.88 102.2
01/26/05 09:34 53.89 53.88 101.9
01/26/05 10:04 54.58 54.58 101.3
01/26/05 10:34 55.28 55.28 100.3
01/26/05 11:04 55.97 54.98 96.5
01/26/05 11:34 57.35 55.24 92.6
01/26/05 12:04 58.04 53.98 86.3
01/26/05 12:34 58.04 53.98 86.3
01/26/05 13:04 58.73 52.86 80.8
01/26/05 13:34 60.8 52.86 75.1
01/26/05 14:04 59.42 51.9 76.1
01/26/05 14:34 60.11 52.88 77
01/26/05 15:04 60.11 54.2 80.8
01/26/05 15:34 60.8 53.04 75.6
01/26/05 16:04 59.42 54.16 82.7
01/26/05 16:34 60.8 52.68 74.6
01/26/05 17:04 60.8 53.22 76.1
01/26/05 17:34 61.48 53.9 76.1
01/26/05 18:04 61.48 49.46 64.6
01/26/05 18:34 60.8 51 70.1
01/26/05 19:04 57.35 52.3 83.2
01/26/05 19:34 55.97 51.82 85.9
01/26/05 20:04 54.58 51.78 90.2
01/26/05 20:34 53.89 51.44 91.4
01/26/05 21:04 53.89 52.02 93.4
01/26/05 21:34 53.89 52.14 93.8
01/26/05 22:04 53.89 51.92 93
01/26/05 22:34 52.49 51.1 95
01/26/05 23:04 51.79 51.22 97.9
01/26/05 23:34 50.38 50.38 100
01/27/05 00:04 51.79 51.12 97.6
01/27/05 00:34 51.79 51.12 97.6
01/27/05 01:04 51.08 50.82 99
01/27/05 01:34 51.79 50.9 96.8
01/27/05 02:04 52.49 50.98 94.6
01/27/05 02:34 52.49 51.3 95.7
01/27/05 03:04 51.79 50.72 96.1
01/27/05 03:34 51.79 50.9 96.8
01/27/05 04:04 50.38 50.1 99
01/27/05 04:34 50.38 50.18 99.3
01/27/05 05:04 48.25 48.24 100.3
01/27/05 05:34 47.53 47.54 101.3
01/27/05 06:04 46.1 46.1 101.6
01/27/05 06:34 45.38 45.38 102.2
01/27/05 07:04 45.38 45.38 102.2
01/27/05 07:34 43.92 43.92 102.2
01/27/05 08:04 46.1 46.1 102.5
01/27/05 08:34 45.38 45.38 102.5
01/27/05 09:04 46.82 46.82 102.8
01/27/05 09:34 47.53 47.54 102.5
01/27/05 10:04 50.38 50.38 101.9
01/27/05 10:34 51.79 49.6 92.2
01/27/05 11:04 53.89 48.92 83.2
01/27/05 11:34 56.66 48.34 73.6
01/27/05 12:04 58.73 48.84 69.6
01/27/05 12:34 60.11 47.06 62
01/27/05 13:04 60.8 47.5 61.5
01/27/05 13:34 62.17 45.2 53.7
01/27/05 14:04 62.17 44.7 52.7
01/27/05 14:34 61.48 46.54 57.9
01/27/05 15:04 63.54 44.9 50.6
01/27/05 15:34 64.91 44.22 47
01/27/05 16:04 65.59 42.1 42.3
01/27/05 16:34 65.59 40.2 39.3
01/27/05 17:04 65.59 43.64 44.9
01/27/05 17:34 64.91 44.5 47.5
01/27/05 18:04 63.54 42.36 45.9
01/27/05 18:34 61.48 41.9 48.5
01/27/05 19:04 58.04 44.68 61
01/27/05 19:34 55.28 45.72 70.1
01/27/05 20:04 53.89 46.86 77
01/27/05 20:34 52.49 48.24 85.4
01/27/05 21:04 51.08 48.44 90.6
01/27/05 21:34 51.08 49.24 93.4
01/27/05 22:04 49.67 48.6 96.1
01/27/05 22:34 49.67 49.22 98.3
01/27/05 23:04 49.67 49.22 98.3
01/27/05 23:34 49.67 49.1 97.9
01/28/05 00:04 49.67 49.1 97.9
01/28/05 00:34 48.96 48.58 98.6
01/28/05 01:04 47.53 47.54 100.3
01/28/05 01:34 47.53 47.54 101
01/28/05 02:04 46.82 46.82 101.6
01/28/05 02:34 47.53 47.54 101.3
01/28/05 03:04 46.82 46.82 101.6
01/28/05 03:34 46.82 46.82 101.6
01/28/05 04:04 45.38 45.38 101.6
01/28/05 04:34 43.92 43.92 101.9
01/28/05 05:04 43.92 43.92 102.2
01/28/05 05:34 43.19 43.2 102.2
01/28/05 06:04 43.92 43.92 102.5
01/28/05 06:34 42.46 42.46 102.5
01/28/05 07:04 42.46 42.46 102.5
01/28/05 07:34 41.72 41.72 102.8
01/28/05 08:04 41.72 41.72 102.5
01/28/05 08:34 40.23 40.22 102.5
01/28/05 09:04 40.97 40.98 102.5
01/28/05 09:34 44.65 44.66 102.8
01/28/05 10:04 47.53 47.54 102.5
01/28/05 10:34 50.38 50.38 102.5
01/28/05 11:04 53.19 52.72 98.3
01/28/05 11:34 58.04 50.56 76.1
01/28/05 12:04 62.17 51.14 67.1
01/28/05 12:34 64.91 49.46 57.3
01/28/05 13:04 67.65 46.1 45.9
01/28/05 13:34 69.02 40.84 35.8
01/28/05 14:04 68.33 44.94 42.9
01/28/05 14:34 69.71 44.52 40.3
01/28/05 15:04 70.39 34.96 27.1
01/28/05 15:34 71.08 33.82 25.3
01/28/05 16:04 71.08 31.98 23.5
01/28/05 16:34 71.08 38.12 30
01/28/05 17:04 70.39 42.06 35.8
01/28/05 17:34 69.02 41.56 36.8
01/28/05 18:04 68.33 38.08 32.9
01/28/05 18:34 65.59 40.84 40.3
01/28/05 19:04 61.48 45.8 56.3
01/28/05 19:34 58.04 47.4 67.6
01/28/05 20:04 56.66 48.34 73.6
01/28/05 20:34 53.89 48 80.4
01/28/05 21:04 54.58 47.4 76.6
01/28/05 21:34 53.19 49.74 88
01/28/05 22:04 51.08 49.48 94.2
01/28/05 22:34 50.38 49.72 97.6
01/28/05 23:04 50.38 49 95
01/28/05 23:34 50.38 49.08 95.3
01/29/05 00:04 49.67 48.8 96.8
01/29/05 00:34 50.38 48.44 93
01/29/05 01:04 49.67 48.5 95.7
01/29/05 01:34 48.96 48.2 97.2
01/29/05 02:04 48.96 48.02 96.5
01/29/05 02:34 48.96 48.32 97.6
01/29/05 03:04 48.25 47.68 97.9
01/29/05 03:34 46.82 46.72 99.6
01/29/05 04:04 50.38 49 95
01/29/05 04:34 51.08 49.48 94.2
01/29/05 05:04 50.38 48.44 93
01/29/05 05:34 50.38 48.08 91.8
01/29/05 06:04 49.67 46.54 88.9
01/29/05 06:34 47.53 45.62 93
01/29/05 07:04 46.1 45.16 96.5
01/29/05 07:34 45.38 44.44 96.5
01/29/05 08:04 45.38 42.8 90.6
01/29/05 08:34 44.65 41.58 88.9
01/29/05 09:04 46.1 40.54 80.8
01/29/05 09:34 47.53 39.88 74.6
01/29/05 10:04 49.67 38.64 65.6
01/29/05 10:34 51.08 36.1 56.3
01/29/05 11:04 51.79 34.8 52.1
01/29/05 11:34 54.58 32.52 42.9
01/29/05 12:04 56.66 28.16 33.3
01/29/05 12:34 55.97 28.26 34.3
01/29/05 13:04 57.35 30.18 35.3
01/29/05 13:34 58.04 32.82 38.3
01/29/05 14:04 57.35 31.88 37.8
01/29/05 14:34 58.73 33.1 37.8
01/29/05 15:04 58.73 31.76 35.8
01/29/05 15:34 60.11 32.98 35.8
01/29/05 16:04 59.42 30.28 32.9
01/29/05 16:34 60.11 32.98 35.8
01/29/05 17:04 59.42 34.04 38.3
01/29/05 17:34 58.04 33.14 38.8
01/29/05 18:04 57.35 32.2 38.3
01/29/05 18:34 55.28 34 44.4
01/29/05 19:04 52.49 38.12 57.9
01/29/05 19:34 50.38 37.68 61.5
01/29/05 20:04 49.67 38.06 64.1
01/29/05 20:34 48.25 39.38 71.2
01/29/05 21:04 48.25 39.7 72.1
01/29/05 21:34 46.82 39.54 75.6
01/29/05 22:04 46.1 40.86 81.8
01/29/05 22:34 45.38 41.66 86.7
01/29/05 23:04 45.38 41.8 87.2
01/29/05 23:34 44.65 41.32 88
01/30/05 00:04 43.19 40.86 91.4
01/30/05 00:34 43.19 40.74 91
01/30/05 01:04 41.72 40.18 94.2
01/30/05 01:34 40.97 39.44 94.2
01/30/05 02:04 41.72 40.48 95.3
01/30/05 02:34 42.46 39.66 89.7
01/30/05 03:04 43.19 40.04 88.5
01/30/05 03:34 43.19 39.76 87.6
01/30/05 04:04 42.46 39.3 88.5
01/30/05 04:34 43.19 39 85
01/30/05 05:04 39.48 38.46 96.1
01/30/05 05:34 37.97 37.52 98.3
01/30/05 06:04 37.97 37.86 99.6
01/30/05 06:34 37.97 37.96 100.3
01/30/05 07:04 36.43 36.44 100.6
01/30/05 07:34 36.43 36.44 101.3
01/30/05 08:04 36.43 36.44 101.6
01/30/05 08:34 35.66 35.66 101.9
01/30/05 09:04 37.2 37.2 101.9
01/30/05 09:34 38.72 38.72 101.9
01/30/05 10:04 46.1 43.02 88.9
01/30/05 10:34 51.08 34.68 53.2
01/30/05 11:04 53.89 33.84 46.4
01/30/05 11:34 56.66 31.9 38.8
01/30/05 12:04 57.35 30.88 36.3
01/30/05 12:34 58.04 28.32 31.9
01/30/05 13:04 59.42 28.34 30.4
01/30/05 13:34 59.42 28.74 30.9
01/30/05 14:04 59.42 28.02 30
01/30/05 14:34 60.11 29.74 31.4
01/30/05 15:04 60.8 29.94 30.9
01/30/05 15:34 61.48 29.4 29.5
01/30/05 16:04 62.17 29.16 28.5
01/30/05 16:34 61.48 28.98 29
01/30/05 17:04 62.17 28.8 28.1
01/30/05 17:34 61.48 28.22 28.1
01/30/05 18:04 59.42 29.9 32.4
01/30/05 18:34 57.35 30.88 36.3
01/30/05 19:04 54.58 34.48 46.4
01/30/05 19:34 52.49 36.44 54.2
01/30/05 20:04 51.08 35.64 55.3
01/30/05 20:34 51.08 35.88 55.8
01/30/05 21:04 51.08 35.38 54.7
01/30/05 21:34 49.67 37.42 62.5
01/30/05 22:04 49.67 38.84 66.1
01/30/05 22:34 49.67 39.78 68.6
01/30/05 23:04 50.38 39.12 65.1
01/30/05 23:34 49.67 38.84 66.1
01/31/05 00:04 48.25 38.42 68.6
01/31/05 00:34 50.38 37.22 60.4
01/31/05 01:04 51.08 37.88 60.4
01/31/05 01:34 51.08 38.54 62
01/31/05 02:04 51.79 35.8 54.2
01/31/05 02:34 51.79 33.28 49
01/31/05 03:04 51.79 32.76 48
01/31/05 03:34 51.79 31.92 46.4
01/31/05 04:04 51.08 31.28 46.4
01/31/05 04:34 51.79 31.38 45.4
01/31/05 05:04 51.79 31.1 44.9
01/31/05 05:34 51.79 30.84 44.4
01/31/05 06:04 51.79 30.84 44.4
01/31/05 06:34 51.79 30.84 44.4
01/31/05 07:04 51.79 29.36 41.8
01/31/05 07:34 51.79 29.64 42.3
01/31/05 08:04 52.49 28.78 39.8
01/31/05 08:34 52.49 28.78 39.8
01/31/05 09:04 53.19 28.48 38.3
01/31/05 09:34 53.19 26.84 35.8
01/31/05 10:04 54.58 26.04 32.9
01/31/05 10:34 55.97 26.5 31.9
01/31/05 11:04 56.66 25.96 30.4
01/31/05 11:34 58.73 26.62 29
01/31/05 12:04 60.11 26.6 27.6
01/31/05 12:34 60.8 26.4 26.7
01/31/05 13:04 60.8 25.1 25.3
01/31/05 13:34 61.48 27.34 27.1
01/31/05 14:04 61.48 22.46 22.1
01/31/05 14:34 61.48 19.52 19.5
01/31/05 15:04 62.17 25.4 24.4
01/31/05 15:34 61.48 29.4 29.5
01/31/05 16:04 61.48 28.22 28.1
01/31/05 16:34 62.17 27.56 26.7
01/31/05 17:04 62.17 26.64 25.7
01/31/05 17:34 61.48 27.78 27.6
01/31/05 18:04 60.11 27.8 29
01/31/05 18:34 57.35 28.46 32.9
01/31/05 19:04 55.28 31.28 39.8
01/31/05 19:34 53.89 32.46 43.9
01/31/05 20:04 53.19 31.82 43.9
01/31/05 20:34 53.19 32.92 45.9
01/31/05 21:04 53.89 31.88 42.9
01/31/05 21:34 53.19 29.72 40.3
01/31/05 22:04 53.89 27.12 35.3
01/31/05 22:34 51.08 31.6 47
01/31/05 23:04 50.38 29 43.4
01/31/05 23:34 51.08 28.42 41.3